Airport ICAO


20:12 UTC

25°C

Few clouds


An affordable passengers' Moving Map for your aircraft. Made for the iPad and the iPhone
More information here

LFLY Bron


Lyon FRANCE   VFR CAVOK


METAR LFLY 162000Z AUTO 31012KT CAVOK 25/12 Q1013 TEMPO FEW070TCU 0h12min

TAF LFLY 161700Z 1618/1718 35012KT CAVOK TEMPO 1618/1623 FEW070TCU BECMG 1623/1702 VRB02KT BECMG 1710/1713 01010KT 3h12min





NOTAMS

OPEN